createdAt,value
2019-02-02T00:00:02.816Z,42.60
2019-02-02T00:02:35.217Z,42.90
2019-02-02T00:05:07.462Z,41.23
2019-02-02T00:07:39.120Z,41.07
2019-02-02T00:10:11.542Z,40.83
2019-02-02T00:12:43.447Z,43.20
2019-02-02T00:15:15.329Z,42.53
2019-02-02T00:17:49.657Z,40.80
2019-02-02T00:20:21.153Z,42.67
2019-02-02T00:22:52.583Z,41.63
2019-02-02T00:25:24.022Z,41.10
2019-02-02T00:27:58.078Z,40.73
2019-02-02T00:30:29.756Z,41.23
2019-02-02T00:33:01.139Z,42.03
2019-02-02T00:35:32.350Z,41.70
2019-02-02T00:38:04.120Z,41.40
2019-02-02T00:40:35.333Z,38.83
2019-02-02T00:43:07.196Z,40.97
2019-02-02T00:45:38.987Z,38.70
2019-02-02T00:48:12.411Z,38.47
2019-02-02T00:50:44.367Z,39.23
2019-02-02T00:53:16.393Z,40.50
2019-02-02T00:55:47.667Z,39.53
2019-02-02T00:58:19.474Z,37.17
2019-02-02T01:00:50.765Z,39.50
2019-02-02T01:03:22.188Z,37.37
2019-02-02T01:05:53.443Z,37.03
2019-02-02T01:08:25.054Z,38.13
2019-02-02T01:10:56.555Z,35.50
2019-02-02T01:13:29.134Z,35.77
2019-02-02T01:16:00.488Z,34.37
2019-02-02T01:18:32.405Z,34.27
2019-02-02T01:21:03.775Z,34.63
2019-02-02T01:23:35.092Z,35.53
2019-02-02T01:26:06.917Z,35.10
2019-02-02T01:28:38.175Z,35.40
2019-02-02T01:31:10.210Z,33.50
2019-02-02T01:33:41.979Z,35.17
2019-02-02T01:36:13.989Z,35.20
2019-02-02T01:38:45.909Z,34.87
2019-02-02T01:41:17.823Z,33.47
2019-02-02T01:43:49.291Z,35.63
2019-02-02T01:46:20.927Z,33.83
2019-02-02T01:48:53.036Z,34.37
2019-02-02T01:51:26.281Z,33.10
2019-02-02T01:53:57.712Z,33.20
2019-02-02T01:56:29.298Z,32.20
2019-02-02T01:59:01.124Z,34.47
2019-02-02T02:01:32.646Z,32.90
2019-02-02T02:04:05.690Z,33.87
2019-02-02T02:06:36.879Z,33.67
2019-02-02T02:09:09.771Z,33.57
2019-02-02T02:11:41.079Z,32.80
2019-02-02T02:14:13.275Z,33.83
2019-02-02T02:16:44.866Z,33.23
2019-02-02T02:19:18.349Z,33.10
2019-02-02T02:21:49.717Z,33.50
2019-02-02T02:24:21.349Z,33.30
2019-02-02T02:26:54.294Z,34.33
2019-02-02T02:29:26.314Z,33.37
2019-02-02T02:31:57.604Z,33.70
2019-02-02T02:34:29.200Z,34.27
2019-02-02T02:37:01.862Z,34.87
2019-02-02T02:39:33.089Z,32.83
2019-02-02T02:42:04.857Z,32.33
2019-02-02T02:44:37.211Z,34.73
2019-02-02T02:47:08.681Z,32.43
2019-02-02T02:49:40.361Z,33.50
2019-02-02T02:52:12.533Z,31.90
2019-02-02T02:54:44.501Z,31.30
2019-02-02T02:57:16.209Z,31.40
2019-02-02T02:59:47.547Z,30.97
2019-02-02T03:02:18.885Z,32.13
2019-02-02T03:04:50.181Z,30.20
2019-02-02T03:07:21.979Z,29.13
2019-02-02T03:09:54.334Z,32.33
2019-02-02T03:12:25.848Z,31.57
2019-02-02T03:14:57.196Z,30.53
2019-02-02T03:17:29.098Z,30.43
2019-02-02T03:20:00.646Z,31.53
2019-02-02T03:22:31.946Z,30.17
2019-02-02T03:25:03.716Z,30.60
2019-02-02T03:27:35.393Z,30.60
2019-02-02T03:30:08.721Z,29.07
2019-02-02T03:32:40.346Z,30.60
2019-02-02T03:35:14.796Z,31.73
2019-02-02T03:37:46.166Z,30.07
2019-02-02T03:40:19.687Z,30.97
2019-02-02T03:42:51.551Z,29.47
2019-02-02T03:45:24.303Z,31.00
2019-02-02T03:47:55.900Z,30.93
2019-02-02T03:50:27.333Z,30.93
2019-02-02T03:52:58.784Z,31.17
2019-02-02T03:55:30.166Z,31.07
2019-02-02T03:58:01.948Z,30.27
2019-02-02T04:00:33.985Z,30.87
2019-02-02T04:03:07.114Z,32.07
2019-02-02T04:05:38.597Z,31.53
2019-02-02T04:08:11.095Z,31.80
2019-02-02T04:10:42.848Z,31.37
2019-02-02T04:13:14.288Z,32.93
2019-02-02T04:15:46.311Z,32.93
2019-02-02T04:18:26.812Z,32.03
2019-02-02T04:20:58.973Z,31.57
2019-02-02T04:23:30.382Z,32.20
2019-02-02T04:26:01.746Z,32.83
2019-02-02T04:28:33.382Z,33.00
2019-02-02T04:31:05.152Z,32.27
2019-02-02T04:33:36.602Z,33.50
2019-02-02T04:36:07.867Z,33.10
2019-02-02T04:38:41.776Z,33.30
2019-02-02T04:41:15.097Z,33.87
2019-02-02T04:43:46.449Z,34.50
2019-02-02T04:46:18.044Z,34.10
2019-02-02T04:48:49.507Z,37.70
2019-02-02T04:51:21.262Z,36.53
2019-02-02T04:53:52.643Z,36.63
2019-02-02T04:56:24.229Z,35.70
2019-02-02T04:58:56.060Z,34.40
2019-02-02T05:01:27.367Z,39.67
2019-02-02T05:03:58.710Z,36.83
2019-02-02T05:06:30.186Z,35.00
2019-02-02T05:09:01.551Z,35.77
2019-02-02T05:11:33.246Z,36.47
2019-02-02T05:14:05.020Z,35.10
2019-02-02T05:16:37.032Z,35.67
2019-02-02T05:19:08.625Z,34.23
2019-02-02T05:21:40.494Z,32.93
2019-02-02T05:24:13.059Z,31.13
2019-02-02T05:26:45.637Z,34.70
2019-02-02T05:29:17.617Z,33.90
2019-02-02T05:31:49.363Z,31.07
2019-02-02T05:34:20.979Z,31.60
2019-02-02T05:36:53.767Z,30.07
2019-02-02T05:39:25.194Z,30.50
2019-02-02T05:41:56.490Z,28.83
2019-02-02T05:44:28.048Z,29.93
2019-02-02T05:46:59.541Z,29.30
2019-02-02T05:49:31.503Z,31.00
2019-02-02T05:52:03.060Z,32.60
2019-02-02T05:54:34.402Z,32.40
2019-02-02T05:57:06.812Z,31.00
2019-02-02T05:59:38.198Z,31.13
2019-02-02T06:02:09.430Z,31.77
2019-02-02T06:04:41.016Z,33.03
2019-02-02T06:07:13.569Z,33.13
2019-02-02T06:09:45.769Z,30.43
2019-02-02T06:12:17.359Z,31.17
2019-02-02T06:14:49.088Z,31.87
2019-02-02T06:17:20.931Z,32.93
2019-02-02T06:19:52.296Z,32.47
2019-02-02T06:22:23.730Z,31.40
2019-02-02T06:24:55.040Z,29.00
2019-02-02T06:27:26.630Z,28.17
2019-02-02T06:30:04.341Z,29.40
2019-02-02T06:32:31.069Z,26.57
2019-02-02T06:35:02.569Z,26.70
2019-02-02T06:37:34.505Z,27.00
2019-02-02T06:40:06.540Z,27.63
2019-02-02T06:42:38.161Z,27.20
2019-02-02T06:45:22.144Z,27.47
2019-02-02T06:47:57.211Z,26.33
2019-02-02T06:50:28.853Z,25.80
2019-02-02T06:53:00.569Z,25.90
2019-02-02T06:55:32.042Z,24.93
2019-02-02T06:58:03.849Z,24.87
2019-02-02T07:00:35.470Z,24.93
2019-02-02T07:03:07.040Z,24.50
2019-02-02T07:05:38.435Z,24.60
2019-02-02T07:08:09.722Z,21.83
2019-02-02T07:10:41.036Z,22.20
2019-02-02T07:13:13.015Z,22.20
2019-02-02T07:15:45.134Z,21.60
2019-02-02T07:18:16.710Z,21.77
2019-02-02T07:20:48.373Z,22.33
2019-02-02T07:23:20.003Z,19.83
2019-02-02T07:25:51.463Z,21.93
2019-02-02T07:28:23.221Z,21.97
2019-02-02T07:30:54.549Z,22.43
2019-02-02T07:33:25.843Z,20.93
2019-02-02T07:35:57.338Z,22.30
2019-02-02T07:38:34.245Z,20.57
2019-02-02T07:41:05.720Z,21.13
2019-02-02T07:43:37.124Z,20.40
2019-02-02T07:46:14.880Z,22.33
2019-02-02T07:48:42.927Z,20.77
2019-02-02T07:51:14.482Z,20.73
2019-02-02T07:53:46.253Z,23.23
2019-02-02T07:56:17.698Z,21.43
2019-02-02T07:58:49.029Z,21.77
2019-02-02T08:01:20.439Z,20.80
2019-02-02T08:03:52.021Z,20.37
2019-02-02T08:06:23.547Z,20.23
2019-02-02T08:08:55.426Z,22.60
2019-02-02T08:11:27.100Z,21.70
2019-02-02T08:13:58.551Z,21.20
2019-02-02T08:16:29.995Z,23.03
2019-02-02T08:19:06.812Z,22.47
2019-02-02T08:21:38.137Z,21.70
2019-02-02T08:24:09.939Z,22.07
2019-02-02T08:26:41.431Z,22.23
2019-02-02T08:29:14.750Z,21.90
2019-02-02T08:31:46.456Z,23.13
2019-02-02T08:34:18.122Z,21.20
2019-02-02T08:36:49.583Z,21.70
2019-02-02T08:39:29.018Z,21.40
2019-02-02T08:41:54.175Z,24.00
2019-02-02T08:44:25.827Z,18.97
2019-02-02T08:46:57.005Z,17.90
2019-02-02T08:49:28.482Z,18.67
2019-02-02T08:51:59.835Z,24.03
2019-02-02T08:54:31.559Z,20.63
2019-02-02T08:57:03.248Z,28.33
2019-02-02T08:59:34.569Z,18.87
2019-02-02T09:02:06.182Z,19.60
2019-02-02T09:04:37.975Z,18.47
2019-02-02T09:07:09.562Z,20.10
2019-02-02T09:09:41.019Z,21.03
2019-02-02T09:12:13.035Z,25.80
2019-02-02T09:14:44.706Z,20.23
2019-02-02T09:17:16.016Z,19.47
2019-02-02T09:19:47.681Z,19.20
2019-02-02T09:22:19.053Z,20.17
2019-02-02T09:24:51.929Z,19.73
2019-02-02T09:27:23.643Z,19.00
2019-02-02T09:29:55.161Z,19.97
2019-02-02T09:32:26.493Z,25.50
2019-02-02T09:34:57.907Z,20.97
2019-02-02T09:37:29.554Z,20.80
2019-02-02T09:40:01.274Z,20.33
2019-02-02T09:42:32.638Z,22.10
2019-02-02T09:45:05.987Z,21.87
2019-02-02T09:47:42.848Z,22.70
2019-02-02T09:50:16.621Z,22.97
2019-02-02T09:52:48.137Z,21.80
2019-02-02T09:55:20.935Z,21.90
2019-02-02T09:57:55.222Z,22.17
2019-02-02T10:00:28.716Z,23.73
2019-02-02T10:03:02.798Z,23.73
2019-02-02T10:05:35.739Z,24.37
2019-02-02T10:08:07.690Z,21.83
2019-02-02T10:10:39.373Z,21.97
2019-02-02T10:13:10.827Z,45.87
2019-02-02T10:15:42.988Z,32.70
2019-02-02T10:18:14.948Z,35.00
2019-02-02T10:20:46.196Z,22.60
2019-02-02T10:23:18.481Z,21.70
2019-02-02T10:25:49.815Z,24.53
2019-02-02T10:28:21.598Z,22.27
2019-02-02T10:30:53.150Z,24.23
2019-02-02T10:33:25.846Z,24.30
2019-02-02T10:35:57.429Z,25.20
2019-02-02T10:38:29.131Z,23.37
2019-02-02T10:41:00.503Z,22.50
2019-02-02T10:43:31.958Z,27.23
2019-02-02T10:46:03.628Z,23.70
2019-02-02T10:48:34.974Z,25.87
2019-02-02T10:51:06.646Z,30.43
2019-02-02T10:53:38.131Z,27.33
2019-02-02T10:56:09.790Z,27.30
2019-02-02T10:58:42.006Z,31.47
2019-02-02T11:01:13.718Z,26.60
2019-02-02T11:03:45.968Z,25.87
2019-02-02T11:06:17.654Z,26.53
2019-02-02T11:08:49.547Z,25.80
2019-02-02T11:11:21.403Z,30.60
2019-02-02T11:13:52.847Z,30.83
2019-02-02T11:16:24.378Z,32.43
2019-02-02T11:18:56.125Z,36.70
2019-02-02T11:21:27.352Z,48.17
2019-02-02T11:23:59.093Z,36.27
2019-02-02T11:26:30.678Z,35.67
2019-02-02T11:29:07.221Z,43.10
2019-02-02T11:31:38.719Z,28.20
2019-02-02T11:34:10.367Z,32.20
2019-02-02T11:36:43.849Z,32.67
2019-02-02T11:39:15.662Z,42.77
2019-02-02T11:41:47.221Z,39.20
2019-02-02T11:44:20.174Z,28.73
2019-02-02T11:46:52.268Z,32.73
2019-02-02T11:49:24.141Z,29.53
2019-02-02T11:51:55.920Z,34.90
2019-02-02T11:54:27.445Z,27.63
2019-02-02T11:56:59.261Z,27.77
2019-02-02T11:59:31.129Z,28.37
2019-02-02T12:02:14.305Z,26.73
2019-02-02T12:04:37.379Z,30.20
2019-02-02T12:07:09.193Z,32.07
2019-02-02T12:09:41.069Z,28.73
2019-02-02T12:12:13.029Z,35.53
2019-02-02T12:14:44.726Z,31.20
2019-02-02T12:17:16.176Z,33.40
2019-02-02T12:19:47.570Z,33.97
2019-02-02T12:22:19.100Z,31.20
2019-02-02T12:24:50.594Z,37.40
2019-02-02T12:27:22.434Z,36.33
2019-02-02T12:29:53.932Z,30.80
2019-02-02T12:32:26.947Z,40.17
2019-02-02T12:34:58.533Z,32.37
2019-02-02T12:37:30.024Z,35.63
2019-02-02T12:40:02.124Z,36.17
2019-02-02T12:42:34.549Z,33.20
2019-02-02T12:45:08.943Z,38.80
2019-02-02T12:47:45.924Z,47.70
2019-02-02T12:50:18.216Z,33.83
2019-02-02T12:52:49.723Z,34.13
2019-02-02T12:55:21.358Z,37.33
2019-02-02T12:58:01.000Z,34.63
2019-02-02T13:00:32.788Z,41.07
2019-02-02T13:03:06.895Z,39.53
2019-02-02T13:05:40.680Z,37.67
2019-02-02T13:08:13.307Z,42.73
2019-02-02T13:10:46.250Z,35.63
2019-02-02T13:13:18.414Z,39.47
2019-02-02T13:15:50.442Z,36.50
2019-02-02T13:18:22.659Z,32.57
2019-02-02T13:20:54.593Z,39.07
2019-02-02T13:23:26.441Z,34.07
2019-02-02T13:26:05.497Z,33.93
2019-02-02T13:28:34.475Z,36.63
2019-02-02T13:31:07.326Z,37.20
2019-02-02T13:33:39.885Z,36.67
2019-02-02T13:36:12.955Z,34.17
2019-02-02T13:38:47.692Z,39.80
2019-02-02T13:41:21.006Z,42.40
2019-02-02T13:43:54.016Z,40.07
2019-02-02T13:46:26.420Z,39.90
2019-02-02T13:48:58.702Z,38.27
2019-02-02T13:51:30.839Z,40.63
2019-02-02T13:54:02.821Z,40.77
2019-02-02T13:56:34.365Z,41.27
2019-02-02T13:59:07.301Z,39.55
2019-02-02T14:01:42.210Z,43.77
2019-02-02T14:04:12.794Z,41.70
2019-02-02T14:06:47.608Z,48.23
2019-02-02T14:09:23.199Z,38.07
2019-02-02T14:11:55.162Z,37.27
2019-02-02T14:14:27.149Z,38.20
2019-02-02T14:16:59.183Z,38.87
2019-02-02T14:19:31.152Z,39.93
2019-02-02T14:22:03.947Z,45.97
2019-02-02T14:24:38.827Z,41.53
2019-02-02T14:27:11.966Z,39.07
2019-02-02T14:29:44.826Z,39.30
2019-02-02T14:32:16.818Z,40.27
2019-02-02T14:34:48.872Z,41.33
2019-02-02T14:37:21.115Z,37.43
2019-02-02T14:39:52.791Z,40.47
2019-02-02T14:42:27.136Z,39.13
2019-02-02T14:45:03.084Z,46.35
2019-02-02T14:47:35.064Z,46.87
2019-02-02T14:50:09.257Z,48.27
2019-02-02T14:52:42.986Z,38.53
2019-02-02T14:55:17.256Z,41.63
2019-02-02T14:57:49.200Z,44.00
2019-02-02T15:00:22.966Z,38.57
2019-02-02T15:03:03.098Z,40.57
2019-02-02T15:05:42.718Z,40.87
2019-02-02T15:08:10.350Z,39.90
2019-02-02T15:10:42.859Z,46.73
2019-02-02T15:13:17.724Z,45.03
2019-02-02T15:15:52.547Z,39.90
2019-02-02T15:18:30.079Z,75.30
2019-02-02T15:21:01.969Z,45.80
2019-02-02T15:23:33.659Z,42.17
2019-02-02T15:26:05.231Z,40.00
2019-02-02T15:28:36.845Z,41.30
2019-02-02T15:31:08.515Z,39.23
2019-02-02T15:33:43.885Z,39.80
2019-02-02T15:36:17.284Z,39.03
2019-02-02T15:38:48.973Z,39.07
2019-02-02T15:41:20.751Z,41.70
2019-02-02T15:43:52.295Z,42.53
2019-02-02T15:46:23.967Z,39.23
2019-02-02T15:48:59.122Z,40.10
2019-02-02T15:51:40.069Z,39.63
2019-02-02T15:54:07.446Z,40.53
2019-02-02T15:56:39.320Z,37.93
2019-02-02T15:59:11.677Z,39.00
2019-02-02T16:01:44.960Z,39.53
2019-02-02T16:04:16.668Z,37.27
2019-02-02T16:06:48.708Z,40.03
2019-02-02T16:09:23.382Z,39.60
2019-02-02T16:12:00.503Z,40.83
2019-02-02T16:14:32.031Z,38.93
2019-02-02T16:17:03.651Z,39.03
2019-02-02T16:19:35.570Z,39.37
2019-02-02T16:22:12.679Z,38.97
2019-02-02T16:24:45.636Z,43.47
2019-02-02T16:27:17.593Z,45.17
2019-02-02T16:29:49.302Z,39.80
2019-02-02T16:32:20.758Z,42.13
2019-02-02T16:34:52.347Z,43.23
2019-02-02T16:37:23.907Z,40.07
2019-02-02T16:39:56.064Z,40.40
2019-02-02T16:42:35.820Z,41.83
2019-02-02T16:45:07.879Z,38.73
2019-02-02T16:47:39.458Z,41.23
2019-02-02T16:50:15.825Z,40.80
2019-02-02T16:52:47.888Z,41.00
2019-02-02T16:55:20.181Z,44.07
2019-02-02T16:57:51.951Z,44.63
2019-02-02T17:00:25.778Z,41.97
2019-02-02T17:02:58.170Z,42.67
2019-02-02T17:05:30.185Z,40.83
2019-02-02T17:08:01.896Z,41.50
2019-02-02T17:10:37.727Z,50.73
2019-02-02T17:13:10.001Z,60.25
2019-02-02T17:15:42.349Z,55.07
2019-02-02T17:18:14.000Z,48.80
2019-02-02T17:20:46.676Z,46.23
2019-02-02T17:23:18.876Z,45.77
2019-02-02T17:25:50.716Z,45.23
2019-02-02T17:28:22.330Z,41.70
2019-02-02T17:30:53.760Z,39.13
2019-02-02T17:33:26.655Z,42.80
2019-02-02T17:35:59.558Z,41.53
2019-02-02T17:38:31.535Z,41.47
2019-02-02T17:41:03.087Z,40.30
2019-02-02T17:43:34.697Z,41.97
2019-02-02T17:46:06.401Z,41.73
2019-02-02T17:48:39.249Z,41.17
2019-02-02T17:51:11.512Z,40.90
2019-02-02T17:53:43.892Z,41.27
2019-02-02T17:56:15.497Z,42.60
2019-02-02T17:58:48.522Z,40.73
2019-02-02T18:01:20.351Z,42.33
2019-02-02T18:03:52.073Z,40.77
2019-02-02T18:06:23.800Z,41.97
2019-02-02T18:08:55.745Z,41.87
2019-02-02T18:11:27.352Z,41.67
2019-02-02T18:13:59.100Z,42.10
2019-02-02T18:16:33.433Z,41.10
2019-02-02T18:19:05.925Z,43.97
2019-02-02T18:21:39.956Z,47.90
2019-02-02T18:24:11.526Z,54.07
2019-02-02T18:26:43.497Z,54.03
2019-02-02T18:29:15.351Z,44.80
2019-02-02T18:31:47.327Z,46.47
2019-02-02T18:34:18.961Z,44.70
2019-02-02T18:36:50.482Z,49.83
2019-02-02T18:39:22.337Z,50.77
2019-02-02T18:41:54.419Z,53.20
2019-02-02T18:44:26.602Z,47.33
2019-02-02T18:46:58.516Z,47.50
2019-02-02T18:49:32.160Z,47.97
2019-02-02T18:52:09.704Z,46.43
2019-02-02T18:54:41.509Z,46.83
2019-02-02T18:57:13.411Z,45.50
2019-02-02T18:59:45.342Z,48.17
2019-02-02T19:02:17.207Z,51.30
2019-02-02T19:04:48.681Z,47.63
2019-02-02T19:07:20.522Z,45.57
2019-02-02T19:09:52.409Z,47.93
2019-02-02T19:12:25.239Z,45.33
2019-02-02T19:14:57.467Z,45.57
2019-02-02T19:17:29.572Z,46.20
2019-02-02T19:20:01.640Z,47.47
2019-02-02T19:22:33.315Z,47.70
2019-02-02T19:25:10.268Z,46.97
2019-02-02T19:27:42.295Z,49.73
2019-02-02T19:30:22.554Z,49.07
2019-02-02T19:32:54.739Z,48.67
2019-02-02T19:35:26.722Z,48.53
2019-02-02T19:37:59.985Z,49.47
2019-02-02T19:40:31.746Z,48.67
2019-02-02T19:43:03.763Z,48.50
2019-02-02T19:45:36.515Z,50.10
2019-02-02T19:48:08.482Z,45.37
2019-02-02T19:50:40.392Z,45.30
2019-02-02T19:53:12.542Z,47.87
2019-02-02T19:55:44.522Z,48.10
2019-02-02T19:58:16.624Z,46.77
2019-02-02T20:00:48.538Z,48.37
2019-02-02T20:03:20.109Z,46.40
2019-02-02T20:05:51.872Z,47.83
2019-02-02T20:08:23.604Z,49.53
2019-02-02T20:10:55.620Z,49.47
2019-02-02T20:13:27.543Z,48.63
2019-02-02T20:15:59.365Z,48.40
2019-02-02T20:18:31.027Z,48.53
2019-02-02T20:21:03.167Z,48.47
2019-02-02T20:23:40.163Z,46.13
2019-02-02T20:26:11.863Z,49.47
2019-02-02T20:28:47.390Z,50.70
2019-02-02T20:31:19.192Z,50.07
2019-02-02T20:33:51.192Z,47.47
2019-02-02T20:36:23.030Z,50.23
2019-02-02T20:38:54.853Z,49.93
2019-02-02T20:41:26.510Z,48.87
2019-02-02T20:43:58.459Z,48.83
2019-02-02T20:46:30.423Z,49.43
2019-02-02T20:49:02.300Z,49.27
2019-02-02T20:51:34.683Z,49.63
2019-02-02T20:54:07.039Z,48.77
2019-02-02T20:56:39.045Z,50.47
2019-02-02T20:59:11.358Z,49.30
2019-02-02T21:01:43.657Z,50.83
2019-02-02T21:04:15.407Z,51.77
2019-02-02T21:06:47.322Z,53.80
2019-02-02T21:09:18.968Z,53.00
2019-02-02T21:11:57.002Z,48.33
2019-02-02T21:14:24.427Z,43.50
2019-02-02T21:16:56.887Z,45.93
2019-02-02T21:19:29.719Z,46.90
2019-02-02T21:22:01.444Z,45.77
2019-02-02T21:24:33.751Z,45.77
2019-02-02T21:27:05.456Z,46.90
2019-02-02T21:29:37.537Z,45.17
2019-02-02T21:32:09.573Z,45.83
2019-02-02T21:34:41.686Z,46.00
2019-02-02T21:37:14.804Z,48.10
2019-02-02T21:39:48.018Z,46.13
2019-02-02T21:42:20.047Z,47.93
2019-02-02T21:44:51.611Z,44.73
2019-02-02T21:47:23.704Z,47.90
2019-02-02T21:49:55.937Z,45.57
2019-02-02T21:52:28.407Z,46.43
2019-02-02T21:55:03.373Z,46.43
2019-02-02T21:57:36.060Z,47.37
2019-02-02T22:00:12.964Z,46.13
2019-02-02T22:02:46.258Z,49.10
2019-02-02T22:05:18.995Z,49.10
2019-02-02T22:07:50.801Z,44.90
2019-02-02T22:10:23.044Z,44.73
2019-02-02T22:12:55.585Z,43.70
2019-02-02T22:15:27.479Z,43.00
2019-02-02T22:17:59.669Z,41.37
2019-02-02T22:20:31.553Z,44.23
2019-02-02T22:23:03.703Z,43.17
2019-02-02T22:25:35.523Z,38.57
2019-02-02T22:28:07.740Z,40.00
2019-02-02T22:30:39.950Z,39.90
2019-02-02T22:33:12.000Z,38.33
2019-02-02T22:35:44.478Z,39.47
2019-02-02T22:38:16.204Z,37.93
2019-02-02T22:40:48.256Z,39.87
2019-02-02T22:43:20.318Z,39.27
2019-02-02T22:45:52.199Z,35.13
2019-02-02T22:48:23.923Z,38.90
2019-02-02T22:50:57.885Z,38.13
2019-02-02T22:53:30.291Z,38.50
2019-02-02T22:56:02.218Z,37.27
2019-02-02T22:58:33.788Z,46.80
2019-02-02T23:01:12.562Z,38.97
2019-02-02T23:04:20.741Z,35.27
2019-02-02T23:07:21.923Z,35.57
2019-02-02T23:10:45.887Z,35.20
2019-02-02T23:13:40.058Z,31.63
2019-02-02T23:16:31.665Z,31.33
2019-02-02T23:19:05.997Z,31.43
2019-02-02T23:21:38.919Z,30.97
2019-02-02T23:24:12.995Z,33.13
2019-02-02T23:26:47.408Z,33.17
2019-02-02T23:29:19.676Z,33.00
2019-02-02T23:31:51.642Z,33.33
2019-02-02T23:34:24.033Z,31.93
2019-02-02T23:36:57.248Z,33.83
2019-02-02T23:39:31.059Z,32.73
2019-02-02T23:42:03.024Z,33.57
2019-02-02T23:44:35.319Z,29.90
2019-02-02T23:47:07.010Z,31.20
2019-02-02T23:49:41.963Z,28.10
2019-02-02T23:52:14.012Z,28.07
2019-02-02T23:54:46.912Z,25.53
2019-02-02T23:57:18.747Z,25.37
2019-02-02T23:59:55.536Z,27.23
